Time;durP1;ratioP1;P1;durP2;ratioP2;P2;SDS_P1;SDS_P2;PMS_P1;PMS_P2;Temp;Humidity;BMP_temperature;BMP_pressure;BME280_temperature;BME280_humidity;BME280_pressure;Samples;Min_cycle;Max_cycle;Signal;HPM_P1;HPM_P2
2022/03/22 00:00:20;;;;;;;59.08;31.83;;;;;;;22.53;100.00;98086.50;5026677;28;20053;-65
2022/03/22 00:03:16;;;;;;;64.72;33.08;;;;;;;22.45;100.00;98088.97;5025392;28;20059;-65
2022/03/22 00:05:54;;;;;;;60.78;31.02;;;;;;;22.43;100.00;98092.69;5018558;28;20129;-65
2022/03/22 00:08:44;;;;;;;66.53;32.22;;;;;;;22.41;100.00;98094.66;5019340;28;20049;-66
2022/03/22 00:11:26;;;;;;;66.68;33.10;;;;;;;22.38;100.00;98098.38;5027959;28;20551;-64
2022/03/22 00:14:28;;;;;;;63.08;33.20;;;;;;;22.39;100.00;98096.56;5027638;28;20105;-67
2022/03/22 00:17:37;;;;;;;71.30;33.33;;;;;;;22.41;100.00;98103.34;5026195;28;20052;-65
2022/03/22 00:20:28;;;;;;;70.22;35.05;;;;;;;22.40;100.00;98106.13;5029589;28;20045;-65
2022/03/22 00:23:09;;;;;;;69.60;35.67;;;;;;;22.35;100.00;98114.38;5028089;28;20156;-65
2022/03/22 00:25:59;;;;;;;71.65;35.60;;;;;;;22.37;100.00;98109.81;5027971;28;20119;-65
2022/03/22 00:28:40;;;;;;;76.50;39.45;;;;;;;22.36;100.00;98109.94;5026094;28;20064;-66
2022/03/22 00:31:30;;;;;;;75.45;38.80;;;;;;;22.35;100.00;98114.38;5025552;28;20080;-65
2022/03/22 00:34:14;;;;;;;76.00;39.35;;;;;;;22.31;100.00;98113.00;5026143;28;20053;-65
2022/03/22 00:37:02;;;;;;;98.88;43.17;;;;;;;22.27;100.00;98116.84;5021435;28;20091;-65
2022/03/22 00:39:45;;;;;;;90.90;42.63;;;;;;;22.26;100.00;98119.63;5021863;28;20073;-65
2022/03/22 00:42:33;;;;;;;90.97;44.30;;;;;;;22.21;100.00;98120.00;5029650;28;20133;-65
2022/03/22 00:45:18;;;;;;;89.60;43.55;;;;;;;22.22;100.00;98118.19;5026508;28;20045;-66
2022/03/22 00:48:12;;;;;;;90.32;45.83;;;;;;;22.23;100.00;98125.94;5035872;28;20456;-65
2022/03/22 00:50:54;;;;;;;88.22;46.35;;;;;;;22.22;100.00;98124.28;5028319;28;20145;-65
2022/03/22 00:53:45;;;;;;;94.53;45.30;;;;;;;22.17;100.00;98123.03;5041346;28;20476;-65
2022/03/22 00:56:26;;;;;;;95.47;45.60;;;;;;;22.15;100.00;98123.16;5045938;28;20056;-65
2022/03/22 01:02:16;;;;;;;93.38;47.72;;;;;;;22.18;100.00;98125.53;5023269;28;20049;-64
2022/03/22 01:05:06;;;;;;;98.65;47.53;;;;;;;22.18;100.00;98124.69;5033588;28;20049;-64
2022/03/22 01:07:57;;;;;;;106.03;49.53;;;;;;;22.18;100.00;98127.31;5028154;28;20138;-65
2022/03/22 01:10:53;;;;;;;112.15;51.55;;;;;;;22.13;100.00;98130.31;5046339;28;20331;-66
2022/03/22 01:13:34;;;;;;;94.10;51.45;;;;;;;22.13;100.00;98132.94;5027507;28;20313;-65
2022/03/22 01:16:24;;;;;;;113.10;55.03;;;;;;;22.11;100.00;98137.47;5026735;28;20053;-65
2022/03/22 01:19:11;;;;;;;117.10;54.20;;;;;;;22.10;100.00;98134.06;5025964;28;20069;-65
2022/03/22 01:22:01;;;;;;;109.75;54.53;;;;;;;22.16;100.00;98137.09;5027181;28;20053;-64
2022/03/22 01:24:44;;;;;;;113.03;55.47;;;;;;;22.12;100.00;98144.41;5026709;28;20073;-64
2022/03/22 01:27:33;;;;;;;103.90;53.90;;;;;;;22.16;100.00;98147.59;5026668;28;20056;-65
2022/03/22 01:30:22;;;;;;;108.65;54.08;;;;;;;22.23;100.00;98154.81;5027181;28;20045;-64
2022/03/22 01:33:05;;;;;;;119.28;57.10;;;;;;;22.26;100.00;98151.09;5030618;28;20049;-66
2022/03/22 01:35:53;;;;;;;121.30;57.60;;;;;;;22.32;100.00;98156.66;5028361;28;20159;-65
2022/03/22 01:38:36;;;;;;;118.43;57.08;;;;;;;22.36;100.00;98155.41;5030612;28;20133;-66
2022/03/22 01:41:24;;;;;;;123.25;57.25;;;;;;;22.42;100.00;98157.53;5024430;28;20049;-65
2022/03/22 01:44:07;;;;;;;114.22;58.65;;;;;;;22.48;100.00;98167.50;5025236;28;20089;-66
2022/03/22 01:47:03;;;;;;;129.40;61.10;;;;;;;22.56;100.00;98166.00;5023589;28;20077;-65
2022/03/22 01:49:54;;;;;;;115.65;59.75;;;;;;;22.61;100.00;98169.03;5031619;28;20458;-65
2022/03/22 01:52:50;;;;;;;122.38;61.20;;;;;;;22.68;100.00;98157.03;5004445;28;20046;-66
2022/03/22 01:55:26;;;;;;;131.18;63.97;;;;;;;22.79;100.00;98170.91;5005568;28;20077;-66
2022/03/22 01:58:15;;;;;;;130.68;61.40;;;;;;;22.94;100.00;98173.16;5005130;28;20062;-66
2022/03/22 02:05:51;;;;;;;127.03;62.08;;;;;;;23.18;100.00;98181.47;5022533;28;20057;-65
2022/03/22 02:07:08;;;;;;;120.15;62.55;;;;;;;23.68;100.00;98179.56;5024344;28;20049;-66
2022/03/22 02:09:57;;;;;;;130.75;61.80;;;;;;;23.90;100.00;98184.50;5023140;28;20114;-65
2022/03/22 02:12:48;;;;;;;118.03;61.88;;;;;;;24.06;100.00;98178.66;5005400;28;20049;-65
2022/03/22 02:15:29;;;;;;;109.07;57.35;;;;;;;24.22;100.00;98183.34;4987553;28;20140;-65
2022/03/22 02:18:21;;;;;;;102.53;57.15;;;;;;;24.36;100.00;98190.78;5002148;28;20057;-67
2022/03/22 02:21:03;;;;;;;107.53;54.03;;;;;;;24.45;100.00;98184.66;5004356;28;20473;-66
2022/03/22 02:24:00;;;;;;;124.20;52.38;;;;;;;24.51;100.00;98191.13;5003356;28;20057;-66
2022/03/22 02:26:41;;;;;;;92.03;48.20;;;;;;;24.54;98.23;98199.56;5004016;28;20042;-65
2022/03/22 02:29:30;;;;;;;94.72;46.20;;;;;;;24.57;95.23;98199.28;5011775;28;20076;-65
2022/03/22 02:32:12;;;;;;;92.82;43.85;;;;;;;24.64;93.91;98197.75;5025932;28;20049;-66
2022/03/22 02:35:01;;;;;;;89.75;46.22;;;;;;;24.66;90.52;98203.66;5031956;28;20076;-66
2022/03/22 02:37:42;;;;;;;82.85;45.17;;;;;;;24.71;90.94;98206.72;5041630;28;20048;-64
2022/03/22 02:40:33;;;;;;;89.10;43.60;;;;;;;24.77;88.23;98207.91;5028986;28;20060;-66
2022/03/22 02:43:15;;;;;;;90.43;44.38;;;;;;;24.82;90.16;98207.50;5030483;28;20064;-67
2022/03/22 02:46:05;;;;;;;90.57;42.40;;;;;;;24.87;85.05;98211.34;5019529;28;20052;-65
2022/03/22 02:48:46;;;;;;;85.35;42.88;;;;;;;25.03;85.90;98216.00;5037308;28;20051;-65
2022/03/22 02:51:36;;;;;;;98.22;44.38;;;;;;;25.11;84.64;98214.28;5005114;28;20070;-65
2022/03/22 02:54:17;;;;;;;85.65;43.38;;;;;;;25.20;82.18;98217.84;5012038;28;20084;-65
2022/03/22 02:57:07;;;;;;;86.38;41.83;;;;;;;25.29;85.00;98221.38;5025949;28;20070;-66
2022/03/22 02:59:49;;;;;;;85.20;43.10;;;;;;;25.33;84.82;98223.56;5003903;28;20112;-65
2022/03/22 03:02:37;;;;;;;116.32;52.95;;;;;;;25.41;85.18;98226.28;5005756;28;20108;-66
2022/03/22 03:05:20;;;;;;;120.45;59.60;;;;;;;25.50;82.03;98233.28;4991145;28;20053;-65
2022/03/22 03:08:10;;;;;;;118.05;59.08;;;;;;;25.58;83.38;98227.25;5017154;28;20720;-66
2022/03/22 03:10:51;;;;;;;124.30;60.13;;;;;;;25.66;84.49;98234.44;5029326;28;20119;-65
2022/03/22 03:16:53;;;;;;;117.47;56.13;;;;;;;25.77;83.48;98242.13;5028018;28;20120;-66
2022/03/22 03:19:42;;;;;;;120.60;56.17;;;;;;;25.89;82.14;98246.19;5024967;28;20045;-66
2022/03/22 03:22:25;;;;;;;112.07;56.25;;;;;;;25.96;81.57;98247.22;5025806;28;20555;-66
2022/03/22 03:25:16;;;;;;;115.85;55.53;;;;;;;26.01;81.15;98255.53;5012397;28;20046;-66
2022/03/22 03:27:58;;;;;;;109.35;55.58;;;;;;;26.04;82.62;98254.38;5017528;28;20073;-64
2022/03/22 03:30:48;;;;;;;103.30;50.20;;;;;;;25.99;79.86;98252.22;5030055;28;20098;-65
2022/03/22 03:33:29;;;;;;;109.72;47.78;;;;;;;26.11;75.88;98258.88;5023655;28;20077;-66
2022/03/22 03:36:19;;;;;;;94.65;43.53;;;;;;;26.15;74.00;98262.88;5011369;28;20103;-66
2022/03/22 03:39:03;;;;;;;89.40;43.92;;;;;;;26.24;74.92;98269.06;5027976;28;20045;-66
2022/03/22 03:41:56;;;;;;;93.95;48.03;;;;;;;26.29;79.19;98267.63;5026898;28;20057;-66
2022/03/22 03:47:45;;;;;;;94.65;49.60;;;;;;;26.29;79.10;98270.28;5025201;28;20068;-66
2022/03/22 03:50:40;;;;;;;90.78;45.83;;;;;;;26.34;79.01;98276.94;5022381;28;20045;-66
2022/03/22 03:53:15;;;;;;;93.45;45.45;;;;;;;26.37;79.40;98277.44;5036739;28;20484;-67
2022/03/22 03:56:06;;;;;;;81.20;40.97;;;;;;;26.36;69.64;98283.69;5035246;28;20094;-65
2022/03/22 03:58:57;;;;;;;87.53;43.33;;;;;;;26.49;69.32;98283.28;5031081;28;20070;-65
2022/03/22 04:01:45;;;;;;;81.60;40.25;;;;;;;26.89;63.64;98282.69;5025026;28;20103;-66
2022/03/22 04:04:28;;;;;;;74.63;42.45;;;;;;;27.08;60.95;98285.09;5026375;28;20143;-65
2022/03/22 04:07:18;;;;;;;79.95;40.83;;;;;;;27.35;60.04;98284.84;5025310;28;20053;-66
2022/03/22 04:10:01;;;;;;;89.63;44.63;;;;;;;27.43;70.14;98276.94;5031581;28;20057;-66
2022/03/22 04:12:48;;;;;;;90.43;45.45;;;;;;;27.59;64.42;98281.47;5034146;28;20060;-66
2022/03/22 04:15:38;;;;;;;89.47;44.08;;;;;;;27.75;64.39;98281.47;5009103;28;20077;-65
2022/03/22 04:18:19;;;;;;;88.82;42.10;;;;;;;28.03;64.77;98284.63;5032511;28;20045;-65
2022/03/22 04:21:09;;;;;;;82.60;44.58;;;;;;;28.10;67.42;98284.78;5023376;28;20052;-66
2022/03/22 04:23:52;;;;;;;87.95;45.42;;;;;;;28.13;70.55;98281.81;5016676;28;20053;-66
2022/03/22 04:26:46;;;;;;;94.45;50.25;;;;;;;28.20;65.98;98280.19;5010696;28;20058;-65
2022/03/22 04:32:53;;;;;;;94.20;48.10;;;;;;;28.31;66.80;98286.97;5026577;28;20136;-66
2022/03/22 04:35:37;;;;;;;98.03;50.58;;;;;;;28.47;65.22;98293.06;5024740;28;20106;-65
2022/03/22 04:38:26;;;;;;;102.10;45.58;;;;;;;28.59;66.15;98290.03;5026664;28;20348;-66
2022/03/22 04:41:08;;;;;;;97.70;48.45;;;;;;;28.54;67.31;98291.41;5024576;28;20107;-64
2022/03/22 04:43:58;;;;;;;95.60;48.95;;;;;;;28.55;66.17;98301.00;5020372;28;20129;-65
2022/03/22 04:46:39;;;;;;;88.05;49.15;;;;;;;28.62;67.01;98295.03;5024302;28;20048;-65
2022/03/22 04:49:29;;;;;;;98.20;47.83;;;;;;;29.00;60.87;98296.91;5034921;28;20057;-66
2022/03/22 04:58:24;;;;;;;80.10;42.92;;;;;;;29.79;61.64;98300.31;5023749;28;20138;-65
2022/03/22 05:01:14;;;;;;;79.70;38.05;;;;;;;29.81;61.37;98291.19;5029245;28;20061;-65
2022/03/22 05:03:56;;;;;;;73.82;32.70;;;;;;;29.68;57.43;98309.53;5029484;28;20355;-65
2022/03/22 05:06:46;;;;;;;61.92;25.45;;;;;;;29.80;59.24;98310.78;5024462;28;20049;-64
2022/03/22 05:09:30;;;;;;;41.38;16.48;;;;;;;29.52;55.75;98305.16;5024478;28;20489;-65
2022/03/22 05:12:19;;;;;;;35.50;14.75;;;;;;;29.77;53.91;98312.97;5028184;28;20045;-65
2022/03/22 05:15:00;;;;;;;38.70;14.40;;;;;;;29.67;53.41;98315.84;5028280;28;20092;-66
2022/03/22 05:17:51;;;;;;;41.72;15.35;;;;;;;29.73;50.96;98312.50;5010258;28;20657;-66
2022/03/22 05:20:46;;;;;;;42.00;16.40;;;;;;;29.46;56.94;98305.84;5025382;28;20052;-67
2022/03/22 05:23:21;;;;;;;43.00;16.55;;;;;;;29.75;52.70;98314.97;5030629;28;20057;-65
2022/03/22 05:26:11;;;;;;;51.83;17.65;;;;;;;30.09;48.93;98311.94;5016940;28;20045;-64
2022/03/22 05:29:00;;;;;;;44.42;19.10;;;;;;;29.90;52.36;98314.03;5018736;28;20431;-65
2022/03/22 05:31:48;;;;;;;53.22;18.92;;;;;;;30.53;48.91;98304.06;5024231;28;20740;-65
2022/03/22 05:34:24;;;;;;;45.80;19.17;;;;;;;30.83;46.02;98315.56;5021090;28;20080;-65
2022/03/22 05:37:13;;;;;;;50.40;18.02;;;;;;;31.31;43.99;98316.81;5009343;28;20565;-66
2022/03/22 05:39:59;;;;;;;41.55;17.25;;;;;;;31.49;43.54;98304.78;5021514;28;20073;-66
2022/03/22 05:42:51;;;;;;;55.60;18.13;;;;;;;31.70;45.96;98305.81;5020251;28;20045;-67
2022/03/22 05:45:37;;;;;;;43.28;16.50;;;;;;;32.36;45.54;98301.94;5020894;28;20049;-66
2022/03/22 05:48:29;;;;;;;46.53;15.10;;;;;;;32.58;42.26;98294.72;5013232;28;20472;-65
2022/03/22 05:51:11;;;;;;;41.28;15.02;;;;;;;32.54;45.32;98290.78;5023217;28;20064;-63
2022/03/22 05:54:01;;;;;;;48.10;16.13;;;;;;;32.80;41.11;98301.69;5022445;28;20068;-65
2022/03/22 05:56:43;;;;;;;49.67;15.05;;;;;;;33.03;42.61;98299.53;5027257;28;20429;-68
2022/03/22 05:59:34;;;;;;;43.00;14.57;;;;;;;32.95;41.78;98291.69;5026377;28;20076;-66
2022/03/22 06:02:17;;;;;;;36.55;11.20;;;;;;;32.87;39.29;98301.69;5014704;28;20053;-65
2022/03/22 06:05:17;;;;;;;33.17;11.18;;;;;;;32.48;41.40;98292.41;5023912;28;20041;-66
2022/03/22 06:08:12;;;;;;;28.33;10.95;;;;;;;32.45;39.44;98290.13;5020449;28;20052;-68
2022/03/22 06:10:59;;;;;;;28.45;9.50;;;;;;;32.68;38.40;98289.84;5011836;28;20061;-64
2022/03/22 06:13:55;;;;;;;28.98;10.15;;;;;;;32.18;44.04;98281.09;5027316;28;20637;-66
2022/03/22 06:16:32;;;;;;;29.95;9.52;;;;;;;32.15;45.45;98285.97;5043785;28;20106;-64
2022/03/22 06:19:20;;;;;;;29.05;10.25;;;;;;;30.94;52.56;98272.53;5020178;28;20045;-64
2022/03/22 06:22:03;;;;;;;38.28;9.63;;;;;;;30.73;50.14;98271.41;5023884;28;20049;-64
2022/03/22 06:24:51;;;;;;;46.05;12.68;;;;;;;31.73;44.69;98270.81;5025475;28;20802;-66
2022/03/22 06:27:35;;;;;;;29.10;11.93;;;;;;;31.77;44.92;98269.44;5020860;28;20525;-64
2022/03/22 06:30:32;;;;;;;38.78;13.82;;;;;;;31.75;48.48;98264.28;5017716;28;20092;-64
2022/03/22 06:33:11;;;;;;;53.30;14.80;;;;;;;32.18;37.78;98267.75;5022971;28;20053;-67
2022/03/22 06:36:00;;;;;;;54.75;14.30;;;;;;;32.58;38.66;98268.03;5019046;28;20068;-65
2022/03/22 06:38:43;;;;;;;39.80;14.52;;;;;;;32.18;45.72;98248.25;5021875;28;20049;-65
2022/03/22 06:41:32;;;;;;;61.97;16.58;;;;;;;31.99;42.08;98256.91;5029182;28;20171;-65
2022/03/22 06:44:22;;;;;;;55.13;17.35;;;;;;;32.02;44.25;98253.84;5023943;28;20049;-65
2022/03/22 06:47:04;;;;;;;47.70;15.93;;;;;;;32.26;43.48;98245.44;5021330;28;20060;-64
2022/03/22 06:49:53;;;;;;;50.45;16.73;;;;;;;32.42;37.75;98266.50;5021615;28;20099;-65
2022/03/22 06:52:43;;;;;;;62.80;16.65;;;;;;;32.59;34.57;98261.69;5027093;28;20123;-65
2022/03/22 06:55:27;;;;;;;48.95;15.48;;;;;;;32.48;39.52;98252.41;5024473;28;20041;-65
2022/03/22 06:58:24;;;;;;;52.78;13.18;;;;;;;32.13;40.73;98248.00;5021632;28;20045;-64
2022/03/22 07:01:00;;;;;;;29.17;11.80;;;;;;;32.32;43.24;98244.69;5024487;28;20049;-65
2022/03/22 07:03:51;;;;;;;51.42;14.27;;;;;;;32.25;36.86;98244.63;5021810;28;20042;-65
2022/03/22 07:06:38;;;;;;;45.72;13.10;;;;;;;32.23;44.68;98227.19;5022229;28;20054;-65
2022/03/22 07:09:27;;;;;;;28.33;12.27;;;;;;;32.03;40.92;98235.00;5023504;28;20433;-65
2022/03/22 07:12:10;;;;;;;45.78;13.93;;;;;;;30.90;47.58;98221.50;5022875;28;20049;-65
2022/03/22 07:15:05;;;;;;;48.08;13.30;;;;;;;31.05;46.19;98208.97;5025810;28;20122;-65
2022/03/22 07:17:40;;;;;;;42.97;12.23;;;;;;;31.16;47.43;98205.88;5021273;28;20045;-64
2022/03/22 07:20:38;;;;;;;48.50;13.20;;;;;;;31.45;43.32;98207.59;5022045;28;20050;-65
2022/03/22 07:23:13;;;;;;;31.60;11.60;;;;;;;31.65;41.22;98209.66;5024614;28;20092;-65
2022/03/22 07:26:08;;;;;;;29.37;10.87;;;;;;;31.16;49.35;98210.38;5033690;28;20053;-65
2022/03/22 07:28:43;;;;;;;35.10;11.95;;;;;;;30.79;48.31;98198.03;5034577;28;20061;-65
2022/03/22 07:31:39;;;;;;;34.45;11.77;;;;;;;30.82;48.02;98197.66;5024816;28;20150;-64
2022/03/22 07:34:16;;;;;;;35.00;11.13;;;;;;;30.84;44.55;98198.31;5021769;28;20077;-65
2022/03/22 07:37:04;;;;;;;41.80;12.00;;;;;;;30.75;45.05;98186.94;5030745;28;20140;-65
2022/03/22 07:39:46;;;;;;;32.25;9.82;;;;;;;31.33;38.05;98205.66;5027481;28;20076;-64
2022/03/22 07:42:35;;;;;;;28.75;10.25;;;;;;;31.85;40.88;98190.16;5029179;28;20053;-65
2022/03/22 07:45:19;;;;;;;30.77;9.35;;;;;;;32.06;36.73;98196.47;5028864;28;20587;-64
2022/03/22 07:48:13;;;;;;;30.20;8.98;;;;;;;32.03;45.98;98179.03;5019530;28;20052;-65
2022/03/22 07:54:00;;;;;;;24.98;9.35;;;;;;;31.20;47.46;98170.91;5026133;28;20057;-64
2022/03/22 07:56:35;;;;;;;38.60;10.18;;;;;;;31.04;47.94;98178.09;5031733;28;20067;-64
2022/03/22 07:59:31;;;;;;;29.33;8.88;;;;;;;31.90;36.46;98189.59;5035349;28;20099;-66
2022/03/22 08:02:23;;;;;;;39.35;9.10;;;;;;;32.25;39.91;98175.28;5012874;28;20204;-65
2022/03/22 08:05:14;;;;;;;32.83;8.48;;;;;;;31.71;47.80;98161.75;5030410;28;20528;-67
2022/03/22 08:07:57;;;;;;;22.33;8.10;;;;;;;31.10;49.77;98163.22;5021825;28;20083;-65
2022/03/22 08:11:12;;;;;;;30.83;8.13;;;;;;;30.40;43.22;98156.63;5022099;28;20333;-64
2022/03/22 08:13:55;;;;;;;26.60;8.75;;;;;;;29.68;51.45;98148.38;5021139;28;20073;-65
2022/03/22 08:16:45;;;;;;;29.35;8.85;;;;;;;29.56;51.29;98148.97;5028769;28;20056;-65
2022/03/22 08:19:28;;;;;;;19.15;7.50;;;;;;;29.09;54.92;98142.00;5045138;28;20060;-64
2022/03/22 08:22:17;;;;;;;22.77;7.75;;;;;;;28.59;58.93;98141.59;5046211;28;20472;-65
2022/03/22 08:25:00;;;;;;;27.55;7.45;;;;;;;28.28;54.35;98145.03;5039132;28;20049;-64
2022/03/22 08:27:50;;;;;;;22.23;8.35;;;;;;;27.98;57.03;98137.81;5025957;28;20532;-64
2022/03/22 08:30:33;;;;;;;32.42;7.60;;;;;;;27.79;58.78;98129.22;5025840;28;20049;-65
2022/03/22 08:33:22;;;;;;;34.25;8.77;;;;;;;27.91;52.97;98126.22;5024585;28;20432;-64
2022/03/22 08:36:04;;;;;;;27.58;8.48;;;;;;;28.35;56.02;98124.78;5027228;28;20051;-65
2022/03/22 08:38:53;;;;;;;44.45;8.40;;;;;;;28.78;49.76;98122.63;5021626;28;20140;-66
2022/03/22 08:41:34;;;;;;;32.97;9.10;;;;;;;30.23;43.36;98127.75;5020909;28;20063;-64
2022/03/22 08:44:23;;;;;;;26.20;8.13;;;;;;;30.04;52.41;98124.63;5025494;28;20388;-64
2022/03/22 08:47:18;;;;;;;24.17;7.07;;;;;;;29.87;51.81;98107.16;5019903;28;20148;-64
2022/03/22 08:49:53;;;;;;;32.25;7.85;;;;;;;29.70;53.96;98110.97;5026631;28;20132;-64
2022/03/22 08:52:46;;;;;;;30.38;8.82;;;;;;;29.51;47.95;98108.84;5032778;28;20132;-64
2022/03/22 08:55:31;;;;;;;23.25;7.78;;;;;;;29.31;56.29;98096.03;5028095;28;20060;-64
2022/03/22 08:58:27;;;;;;;39.88;8.35;;;;;;;28.99;56.36;98101.59;5045596;28;20452;-65
2022/03/22 09:01:02;;;;;;;21.15;7.93;;;;;;;28.76;56.31;98080.38;5034568;28;20063;-64
2022/03/22 09:07:11;;;;;;;32.30;9.10;;;;;;;29.38;44.39;98096.19;4993705;28;20053;-65
2022/03/22 09:09:59;;;;;;;28.02;8.27;;;;;;;29.63;47.36;98088.81;5011648;28;20049;-64
2022/03/22 09:12:42;;;;;;;26.95;6.88;;;;;;;29.09;52.51;98075.66;5019625;28;20617;-65
2022/03/22 09:15:39;;;;;;;23.80;7.55;;;;;;;28.93;55.49;98073.13;5012479;28;20054;-65
2022/03/22 09:18:14;;;;;;;21.60;7.15;;;;;;;28.46;55.60;98075.88;5009963;28;20628;-66
2022/03/22 09:21:03;;;;;;;35.17;9.05;;;;;;;28.41;58.55;98070.28;5009026;28;20052;-65
2022/03/22 09:23:46;;;;;;;33.60;8.20;;;;;;;28.49;50.92;98067.59;4999439;28;20056;-65
2022/03/22 09:26:33;;;;;;;20.83;7.07;;;;;;;28.75;52.76;98062.78;4992168;28;20426;-64
2022/03/22 09:29:41;;;;;;;21.48;8.02;;;;;;;28.57;52.04;98059.59;5010875;28;20045;-65
2022/03/22 09:32:31;;;;;;;24.95;7.13;;;;;;;28.47;55.79;98049.22;4993801;28;20070;-65
2022/03/22 09:35:19;;;;;;;24.33;6.70;;;;;;;28.03;56.03;98043.59;5005435;28;20129;-65
2022/03/22 09:38:14;;;;;;;22.95;6.85;;;;;;;27.83;47.74;98050.28;4998859;28;20081;-66
2022/03/22 09:40:53;;;;;;;25.65;8.50;;;;;;;27.87;53.29;98051.59;5005009;28;20104;-64
2022/03/22 09:43:56;;;;;;;19.25;7.43;;;;;;;27.75;56.76;98043.19;4658074;28;9999804;-66
2022/03/22 09:46:34;;;;;;;30.23;6.85;;;;;;;27.57;56.17;98039.94;5004066;28;20053;-67
2022/03/22 09:49:23;;;;;;;26.20;7.63;;;;;;;27.50;55.74;98038.91;5004226;28;20137;-65
2022/03/22 09:52:12;;;;;;;23.23;7.00;;;;;;;27.51;57.75;98040.56;5005668;28;20060;-64
2022/03/22 09:54:54;;;;;;;25.77;7.38;;;;;;;27.45;56.77;98030.66;5003720;28;20487;-64
2022/03/22 09:57:43;;;;;;;30.08;8.20;;;;;;;27.15;59.15;98020.75;4660061;28;10000922;-64
2022/03/22 10:00:31;;;;;;;34.10;7.78;;;;;;;27.61;51.35;98030.66;4999750;28;20088;-65
2022/03/22 10:03:29;;;;;;;32.20;9.30;;;;;;;27.47;56.70;98010.13;4973066;28;20125;-65
2022/03/22 10:06:34;;;;;;;28.45;6.95;;;;;;;27.18;58.06;98012.50;4982052;28;20798;-65
2022/03/22 10:09:40;;;;;;;23.88;7.60;;;;;;;27.02;55.78;98008.88;4993882;28;20053;-63
2022/03/22 10:12:34;;;;;;;31.70;6.93;;;;;;;26.82;58.77;98012.00;4992800;28;20054;-64
2022/03/22 10:15:38;;;;;;;24.80;8.05;;;;;;;26.74;60.64;98014.66;5029003;28;20040;-65
2022/03/22 10:18:13;;;;;;;25.25;7.93;;;;;;;26.61;59.39;98009.81;5022494;28;20053;-64
2022/03/22 10:21:03;;;;;;;26.80;9.02;;;;;;;26.73;63.32;98013.00;5002899;28;20318;-66
2022/03/22 10:24:00;;;;;;;29.38;8.43;;;;;;;26.95;59.82;98005.25;5026044;28;20061;-64
2022/03/22 10:26:46;;;;;;;39.10;9.30;;;;;;;26.64;63.76;97998.94;5018395;28;20144;-66
2022/03/22 10:29:36;;;;;;;28.70;7.78;;;;;;;26.66;65.03;97996.94;5019099;28;20072;-66
2022/03/22 10:32:19;;;;;;;30.45;7.93;;;;;;;26.57;65.46;97993.50;5022304;28;20041;-65
2022/03/22 10:35:44;;;;;;;25.10;7.60;;;;;;;26.36;67.05;97989.63;5016380;28;20073;-66
2022/03/22 10:38:32;;;;;;;30.25;8.02;;;;;;;26.24;68.50;97982.00;5019263;28;20674;-65
2022/03/22 10:41:22;;;;;;;24.80;8.82;;;;;;;26.43;62.57;97972.97;5018150;28;20190;-65
2022/03/22 10:44:09;;;;;;;27.40;7.40;;;;;;;26.54;64.54;97977.13;5002298;28;20071;-64
2022/03/22 10:47:02;;;;;;;27.75;8.60;;;;;;;26.47;62.70;97976.94;5014296;28;20049;-64
2022/03/22 10:49:45;;;;;;;21.73;7.93;;;;;;;26.47;63.79;97981.41;5013416;28;20053;-66
2022/03/22 10:52:37;;;;;;;26.60;9.15;;;;;;;26.36;66.12;97968.50;5019623;28;20047;-66
2022/03/22 10:55:22;;;;;;;37.10;8.32;;;;;;;26.43;66.35;97969.50;5019479;28;20057;-67
2022/03/22 10:58:10;;;;;;;27.38;8.35;;;;;;;26.44;66.61;97968.50;5018762;28;20060;-65
2022/03/22 11:00:53;;;;;;;26.95;9.90;;;;;;;26.41;68.00;97960.94;5016645;28;20111;-64
2022/03/22 11:03:44;;;;;;;38.83;11.70;;;;;;;26.36;68.29;97969.31;5002074;28;20072;-66
2022/03/22 11:06:30;;;;;;;31.27;9.20;;;;;;;26.28;68.77;97964.84;5003009;28;20055;-65
2022/03/22 11:09:21;;;;;;;25.73;8.48;;;;;;;26.37;65.88;97963.06;4990022;28;20125;-65
2022/03/22 11:12:03;;;;;;;32.20;8.85;;;;;;;26.62;63.58;97966.56;4984591;28;20497;-70
2022/03/22 11:15:04;;;;;;;29.67;8.88;;;;;;;26.70;65.89;97969.19;5016209;28;20053;-66
2022/03/22 11:17:53;;;;;;;29.85;8.73;;;;;;;26.77;65.11;97959.63;5018378;28;20146;-65
2022/03/22 11:20:42;;;;;;;26.17;7.72;;;;;;;26.84;57.98;97962.41;5015862;28;20045;-65
2022/03/22 11:23:33;;;;;;;26.38;7.50;;;;;;;26.88;64.12;97954.00;5008637;28;20131;-67
2022/03/22 11:26:25;;;;;;;21.67;7.80;;;;;;;26.69;59.07;97964.91;5013264;28;20057;-68
2022/03/22 11:29:09;;;;;;;34.38;8.05;;;;;;;26.59;50.47;97964.22;5027511;28;20054;-69
2022/03/22 11:35:00;;;;;;;35.45;9.38;;;;;;;26.11;66.50;97955.22;5018401;28;20059;-66
2022/03/22 11:38:00;;;;;;;30.00;9.25;;;;;;;26.08;67.68;97952.91;5033762;28;20049;-69
2022/03/22 11:44:02;;;;;;;34.00;9.93;;;;;;;26.14;69.55;97954.06;5012889;28;20080;-68
2022/03/22 11:46:52;;;;;;;43.15;10.55;;;;;;;26.28;66.72;97950.81;5025492;28;20063;-67
2022/03/22 11:50:01;;;;;;;27.75;10.30;;;;;;;26.37;69.53;97949.03;5005753;28;20119;-69
2022/03/22 11:52:51;;;;;;;38.00;10.65;;;;;;;26.27;68.47;97959.72;5025670;28;20041;-66
2022/03/22 11:55:40;;;;;;;37.35;10.63;;;;;;;26.33;71.50;97953.00;5001228;28;20049;-68
2022/03/22 11:58:22;;;;;;;30.55;13.23;;;;;;;26.29;75.29;97955.94;4992785;28;20050;-70
2022/03/22 12:01:36;;;;;;;29.55;11.35;;;;;;;26.36;69.97;97944.72;5008784;28;20111;-69
2022/03/22 12:04:25;;;;;;;28.42;10.10;;;;;;;26.43;72.64;97953.66;5042870;28;20052;-68
2022/03/22 12:07:29;;;;;;;32.42;12.50;;;;;;;26.54;72.54;97953.34;5029045;28;20041;-66
2022/03/22 12:10:14;;;;;;;33.47;13.00;;;;;;;26.50;71.69;97959.97;5024888;28;20053;-66
2022/03/22 12:13:17;;;;;;;25.63;11.02;;;;;;;26.46;75.56;97954.16;5026062;28;20156;-67
2022/03/22 12:16:05;;;;;;;30.23;10.95;;;;;;;26.85;59.65;97966.72;5018495;28;20827;-67
2022/03/22 12:18:54;;;;;;;39.42;11.82;;;;;;;27.52;62.08;97967.31;4997499;28;20065;-70
2022/03/22 12:21:43;;;;;;;32.45;11.43;;;;;;;27.44;62.85;97968.16;5005877;28;20505;-66
2022/03/22 12:24:34;;;;;;;38.10;10.77;;;;;;;27.76;59.36;97970.72;4976942;28;20061;-68
2022/03/22 12:27:27;;;;;;;30.80;10.68;;;;;;;27.65;59.90;97979.03;5003184;28;20078;-67
2022/03/22 12:30:17;;;;;;;32.63;10.43;;;;;;;27.39;63.52;97963.34;4990546;28;20128;-67
2022/03/22 12:33:02;;;;;;;26.25;11.13;;;;;;;27.04;66.22;97961.97;5006014;28;20046;-68
2022/03/22 12:35:53;;;;;;;32.42;10.15;;;;;;;26.95;65.47;97960.31;5009319;28;20048;-66
2022/03/22 12:38:41;;;;;;;23.70;9.63;;;;;;;26.80;66.54;97955.81;5009989;28;20046;-68
2022/03/22 12:41:25;;;;;;;25.35;10.07;;;;;;;26.64;67.79;97957.47;5009166;28;20053;-66
2022/03/22 12:44:22;;;;;;;42.33;11.15;;;;;;;26.52;68.35;97950.03;4989709;28;20045;-69
2022/03/22 12:46:58;;;;;;;39.33;12.18;;;;;;;26.46;68.47;97959.44;4995433;28;20046;-67
2022/03/22 12:49:48;;;;;;;39.40;12.07;;;;;;;26.40;69.93;97954.00;4985641;28;20128;-67
2022/03/22 12:52:30;;;;;;;30.08;11.40;;;;;;;26.34;69.22;97954.66;4988416;28;20489;-67
2022/03/22 12:55:20;;;;;;;39.03;11.23;;;;;;;26.20;72.95;97954.25;5000373;28;20058;-66
2022/03/22 12:58:10;;;;;;;36.58;12.63;;;;;;;26.21;73.87;97950.63;5003090;28;20046;-67
2022/03/22 13:00:53;;;;;;;44.45;12.52;;;;;;;26.16;72.24;97955.56;5005934;28;20104;-66
2022/03/22 13:03:43;;;;;;;48.75;14.48;;;;;;;26.02;75.38;97955.38;5004975;28;20053;-67
2022/03/22 13:06:24;;;;;;;54.20;15.88;;;;;;;25.94;75.63;97953.53;5005610;28;20124;-69
2022/03/22 13:12:21;;;;;;;35.08;12.38;;;;;;;25.86;77.72;97950.88;4975241;28;20120;-66
2022/03/22 13:15:19;;;;;;;41.72;14.35;;;;;;;25.82;76.18;97958.28;5001964;28;20050;-70
2022/03/22 13:18:07;;;;;;;;;;;;;;;25.79;76.36;97963.84;5016233;28;20372;-64
2022/03/22 13:20:49;;;;;;;47.42;13.07;;;;;;;25.92;64.99;97958.16;5026222;28;19925;-68
2022/03/22 13:23:38;;;;;;;32.83;12.88;;;;;;;26.25;65.23;97959.06;5012561;28;20053;-68
2022/03/22 13:26:27;;;;;;;44.38;12.82;;;;;;;26.57;65.61;97966.22;5013827;28;20049;-68
2022/03/22 13:29:18;;;;;;;42.80;12.30;;;;;;;26.84;65.67;97967.72;4997769;28;20053;-66